Time;durP1;ratioP1;P1;durP2;ratioP2;P2;SDS_P1;SDS_P2;PMS_P1;PMS_P2;Temp;Humidity;BMP_temperature;BMP_pressure;BME280_temperature;BME280_humidity;BME280_pressure;Samples;Min_cycle;Max_cycle;Signal;HPM_P1;HPM_P2
2024/01/10 00:01:46;;;;;;;14.63;6.85;;;-6.50;99.90;;;;;;4996277;28;20621;-77
2024/01/10 00:04:16;;;;;;;8.75;4.57;;;-6.50;99.90;;;;;;5013086;28;20218;-80
2024/01/10 00:06:42;;;;;;;11.30;7.82;;;-6.50;99.90;;;;;;5002582;28;20210;-78
2024/01/10 00:09:09;;;;;;;15.48;8.65;;;-6.50;99.90;;;;;;5022833;28;20280;-77
2024/01/10 00:11:36;;;;;;;14.90;9.40;;;-6.50;99.90;;;;;;5013118;28;20204;-77
2024/01/10 00:14:04;;;;;;;11.90;5.88;;;-6.50;99.90;;;;;;4994467;28;20249;-76
2024/01/10 00:16:31;;;;;;;10.85;7.28;;;-6.50;99.90;;;;;;5009035;28;20646;-77
2024/01/10 00:18:59;;;;;;;17.40;9.32;;;-6.50;99.90;;;;;;5005939;28;20207;-77
2024/01/10 00:21:26;;;;;;;11.85;8.63;;;-6.50;99.90;;;;;;4997013;28;20263;-77
2024/01/10 00:23:53;;;;;;;15.45;6.68;;;-6.50;99.90;;;;;;5009401;28;20210;-77
2024/01/10 00:26:20;;;;;;;12.40;5.75;;;-6.50;99.90;;;;;;5006019;28;20674;-76
2024/01/10 00:28:47;;;;;;;18.48;8.15;;;-6.50;99.90;;;;;;5020399;28;20215;-78
2024/01/10 00:31:14;;;;;;;36.38;8.93;;;-6.40;99.90;;;;;;5005475;28;20263;-80
2024/01/10 00:33:41;;;;;;;24.83;8.48;;;-6.50;99.90;;;;;;5019996;28;20560;-77
2024/01/10 00:36:10;;;;;;;18.92;7.63;;;-6.40;99.90;;;;;;5006137;28;20211;-77
2024/01/10 00:38:38;;;;;;;10.13;5.20;;;-6.40;99.90;;;;;;4998720;28;20228;-76
2024/01/10 00:41:05;;;;;;;6.13;4.75;;;-6.40;99.90;;;;;;5004395;28;20203;-77
2024/01/10 00:43:32;;;;;;;13.65;7.63;;;-6.40;99.90;;;;;;5011265;28;20203;-77
2024/01/10 00:45:58;;;;;;;13.95;8.38;;;-6.40;99.90;;;;;;5008492;28;20276;-78
2024/01/10 00:48:25;;;;;;;17.38;7.93;;;-6.40;99.90;;;;;;5015474;28;20262;-77
2024/01/10 00:50:52;;;;;;;16.08;8.68;;;-6.40;99.90;;;;;;5009946;28;20235;-78
2024/01/10 00:53:21;;;;;;;15.07;9.30;;;-6.50;99.90;;;;;;5006603;28;20194;-78
2024/01/10 00:55:48;;;;;;;10.50;6.20;;;-6.50;99.90;;;;;;5008872;28;20207;-76
2024/01/10 00:58:15;;;;;;;16.35;8.80;;;-6.50;99.90;;;;;;5038302;28;20311;-78
2024/01/10 01:00:41;;;;;;;12.38;8.38;;;-6.40;99.90;;;;;;5043060;28;20558;-76
2024/01/10 01:03:08;;;;;;;16.77;8.07;;;-6.40;99.90;;;;;;5012828;28;20195;-78
2024/01/10 01:05:35;;;;;;;8.07;5.90;;;-6.50;99.90;;;;;;5073049;28;20839;-79
2024/01/10 01:08:02;;;;;;;10.95;4.40;;;-6.50;99.90;;;;;;5031311;28;20204;-78
2024/01/10 01:10:30;;;;;;;16.25;9.60;;;-6.40;99.90;;;;;;5055524;28;20205;-78
2024/01/10 01:12:57;;;;;;;12.15;7.50;;;-6.40;99.90;;;;;;5004587;28;20206;-80
2024/01/10 01:15:24;;;;;;;13.70;7.20;;;-6.40;99.90;;;;;;5054334;28;20207;-79
2024/01/10 01:17:51;;;;;;;11.50;6.28;;;-6.40;99.90;;;;;;5018639;28;20250;-76
2024/01/10 01:20:18;;;;;;;13.73;9.05;;;-6.40;99.90;;;;;;5025672;28;20203;-78
2024/01/10 01:22:45;;;;;;;16.70;7.80;;;-6.40;99.90;;;;;;5036261;28;20616;-78
2024/01/10 01:25:12;;;;;;;7.47;4.88;;;-6.40;99.90;;;;;;5060185;28;20209;-78
2024/01/10 01:27:41;;;;;;;8.02;4.90;;;-6.40;99.90;;;;;;5061858;28;20202;-79
2024/01/10 01:30:09;;;;;;;7.35;4.82;;;-6.40;99.90;;;;;;5049162;28;20203;-80
2024/01/10 01:32:36;;;;;;;9.95;5.82;;;-6.40;99.90;;;;;;5021452;28;20207;-76
2024/01/10 01:35:02;;;;;;;21.13;8.20;;;-6.40;99.90;;;;;;5033223;28;20203;-77
2024/01/10 01:37:29;;;;;;;9.98;5.28;;;-6.40;99.90;;;;;;5006233;28;20222;-76
2024/01/10 01:39:56;;;;;;;16.50;7.18;;;-6.30;99.90;;;;;;5026053;28;20242;-76
2024/01/10 01:42:23;;;;;;;16.40;8.95;;;-6.40;99.90;;;;;;5004123;28;20212;-79
2024/01/10 01:44:52;;;;;;;13.90;7.72;;;-6.40;99.90;;;;;;5016609;28;20211;-80
2024/01/10 01:47:19;;;;;;;16.20;9.18;;;-6.40;99.90;;;;;;5013684;28;20231;-76
2024/01/10 01:49:45;;;;;;;15.75;9.02;;;-6.40;99.90;;;;;;5025388;28;20256;-77
2024/01/10 01:52:13;;;;;;;12.70;5.60;;;-6.40;99.90;;;;;;5007758;28;20275;-79
2024/01/10 01:54:41;;;;;;;12.50;8.77;;;-6.40;99.90;;;;;;5002484;28;20235;-77
2024/01/10 01:57:08;;;;;;;20.85;7.25;;;-6.30;99.90;;;;;;5003924;28;20310;-77
2024/01/10 01:59:35;;;;;;;10.90;7.88;;;-6.40;99.90;;;;;;5007989;28;20694;-77
2024/01/10 02:02:05;;;;;;;13.60;8.75;;;-6.40;99.90;;;;;;5004146;28;20258;-77
2024/01/10 02:04:32;;;;;;;14.65;7.28;;;-6.40;99.90;;;;;;5012812;28;20211;-76
2024/01/10 02:07:00;;;;;;;15.45;9.02;;;-6.40;99.90;;;;;;5022089;28;20197;-78
2024/01/10 02:09:27;;;;;;;20.17;10.23;;;-6.40;99.90;;;;;;5006323;28;20203;-78
2024/01/10 02:11:54;;;;;;;14.80;6.10;;;-6.40;99.90;;;;;;5004969;28;20208;-77
2024/01/10 02:14:22;;;;;;;13.98;7.55;;;-6.40;99.90;;;;;;4991521;28;20200;-77
2024/01/10 02:16:49;;;;;;;14.70;6.50;;;-6.50;99.90;;;;;;5011016;28;20330;-77
2024/01/10 02:19:22;;;;;;;12.88;9.57;;;-6.40;99.90;;;;;;5016634;28;20209;-77
2024/01/10 02:21:49;;;;;;;10.02;6.55;;;-6.50;99.90;;;;;;5004720;28;20208;-78
2024/01/10 02:24:16;;;;;;;17.88;9.27;;;-6.50;99.90;;;;;;4994022;28;20643;-79
2024/01/10 02:26:45;;;;;;;24.60;12.10;;;-6.50;99.90;;;;;;5052247;28;20218;-78
2024/01/10 02:29:12;;;;;;;22.10;11.30;;;-6.50;99.90;;;;;;5026316;28;20276;-78
2024/01/10 02:31:38;;;;;;;20.40;10.68;;;-6.50;99.90;;;;;;5042701;28;20264;-78
2024/01/10 02:34:05;;;;;;;19.27;10.25;;;-6.50;99.90;;;;;;5017290;28;20207;-79
2024/01/10 02:36:32;;;;;;;15.20;8.07;;;-6.60;99.90;;;;;;5012154;28;20200;-78
2024/01/10 02:38:59;;;;;;;18.70;10.75;;;-6.50;99.90;;;;;;5017477;28;20212;-80
2024/01/10 02:41:27;;;;;;;12.35;6.80;;;-6.50;99.90;;;;;;5016475;28;20888;-78
2024/01/10 02:43:58;;;;;;;21.15;11.48;;;-6.50;99.90;;;;;;5020982;28;20199;-77
2024/01/10 02:46:27;;;;;;;15.65;8.45;;;-6.50;99.90;;;;;;5022813;28;20292;-79
2024/01/10 02:48:55;;;;;;;29.98;10.93;;;-6.60;99.90;;;;;;5005853;28;20219;-77
2024/01/10 02:51:22;;;;;;;12.55;7.90;;;-6.50;99.90;;;;;;5013405;28;20201;-78
2024/01/10 02:53:49;;;;;;;17.70;7.97;;;-6.50;99.90;;;;;;5006612;28;20235;-79
2024/01/10 02:56:16;;;;;;;14.57;8.48;;;-6.50;99.90;;;;;;5004391;28;20210;-77
2024/01/10 02:58:42;;;;;;;16.58;10.57;;;-6.50;99.90;;;;;;5015841;28;20772;-77
2024/01/10 03:01:11;;;;;;;7.55;6.05;;;-6.40;99.90;;;;;;5021004;28;20204;-77
2024/01/10 03:03:38;;;;;;;22.95;10.65;;;-6.40;99.90;;;;;;5008929;28;20259;-79
2024/01/10 03:06:05;;;;;;;17.63;11.60;;;-6.40;99.90;;;;;;5010601;28;20654;-77
2024/01/10 03:08:32;;;;;;;8.23;4.25;;;-6.40;99.90;;;;;;5012172;28;20299;-78
2024/01/10 03:10:59;;;;;;;16.30;9.23;;;-6.40;99.90;;;;;;5033495;28;20239;-76
2024/01/10 03:13:26;;;;;;;21.13;12.07;;;-6.40;99.90;;;;;;5012893;28;20263;-75
2024/01/10 03:15:53;;;;;;;22.70;9.30;;;-6.40;99.90;;;;;;5011508;28;20235;-76
2024/01/10 03:18:21;;;;;;;15.95;8.40;;;-6.30;99.90;;;;;;5045726;28;20335;-76
2024/01/10 03:20:48;;;;;;;20.63;9.57;;;-6.40;99.90;;;;;;5012953;28;20211;-78
2024/01/10 03:23:15;;;;;;;18.45;8.32;;;-6.40;99.90;;;;;;5004507;28;20208;-76
2024/01/10 03:25:42;;;;;;;20.30;10.18;;;-6.40;99.90;;;;;;5020842;28;20254;-76
2024/01/10 03:28:09;;;;;;;19.27;11.00;;;-6.40;99.90;;;;;;5016821;28;20227;-76
2024/01/10 03:30:36;;;;;;;19.13;7.97;;;-6.50;99.90;;;;;;5003140;28;20208;-77
2024/01/10 03:33:03;;;;;;;19.20;9.77;;;-6.50;99.90;;;;;;5014624;28;20294;-79
2024/01/10 03:35:31;;;;;;;25.95;8.25;;;-6.50;99.90;;;;;;5023318;28;20283;-78
2024/01/10 03:37:58;;;;;;;13.82;8.45;;;-6.60;99.90;;;;;;5042632;28;20356;-77
2024/01/10 03:40:25;;;;;;;14.65;8.48;;;-6.60;99.90;;;;;;5022375;28;20203;-78
2024/01/10 03:42:52;;;;;;;13.07;5.93;;;-6.60;99.90;;;;;;5003449;28;20204;-79
2024/01/10 03:45:22;;;;;;;16.98;8.50;;;-6.60;99.90;;;;;;5007303;28;20245;-77
2024/01/10 03:47:50;;;;;;;15.07;10.38;;;-6.70;99.90;;;;;;5030001;28;20214;-76
2024/01/10 03:50:18;;;;;;;27.13;10.07;;;-6.70;99.90;;;;;;5004132;28;20203;-76
2024/01/10 03:52:47;;;;;;;19.90;13.07;;;-6.60;99.90;;;;;;5006235;28;20655;-80
2024/01/10 03:55:15;;;;;;;13.38;9.73;;;-6.60;99.90;;;;;;5015166;28;20204;-76
2024/01/10 03:57:42;;;;;;;25.17;14.02;;;-6.60;99.90;;;;;;5011870;28;20238;-77
2024/01/10 04:00:10;;;;;;;28.13;10.93;;;-6.70;99.90;;;;;;5007177;28;20212;-76
2024/01/10 04:02:38;;;;;;;20.30;11.65;;;-6.70;99.90;;;;;;5012002;28;20279;-77
2024/01/10 04:05:08;;;;;;;15.90;9.82;;;-6.70;99.90;;;;;;5004204;28;20966;-76
2024/01/10 04:07:35;;;;;;;23.45;12.23;;;-6.70;99.90;;;;;;5004248;28;20297;-78
2024/01/10 04:10:04;;;;;;;19.15;10.27;;;-6.70;99.90;;;;;;5004617;28;20207;-76
2024/01/10 04:12:31;;;;;;;17.50;8.88;;;-6.70;99.90;;;;;;4998709;28;20532;-77
2024/01/10 04:14:58;;;;;;;12.90;8.15;;;-6.70;99.90;;;;;;5010141;28;20688;-76
2024/01/10 04:17:25;;;;;;;22.52;9.32;;;-6.70;99.90;;;;;;5029914;28;20227;-79
2024/01/10 04:19:52;;;;;;;21.65;9.75;;;-6.70;99.90;;;;;;5040447;28;20260;-78
2024/01/10 04:22:19;;;;;;;17.42;10.48;;;-6.80;99.90;;;;;;4999982;28;20253;-77
2024/01/10 04:24:46;;;;;;;9.98;5.88;;;-6.80;99.90;;;;;;5008058;28;20636;-79
2024/01/10 04:27:14;;;;;;;21.50;11.35;;;-6.80;99.90;;;;;;5015153;28;20227;-78
2024/01/10 04:29:41;;;;;;;15.20;7.22;;;-6.80;99.90;;;;;;5005213;28;20290;-76
2024/01/10 04:32:08;;;;;;;21.13;10.55;;;-6.80;99.90;;;;;;5009248;28;20274;-76
2024/01/10 04:34:35;;;;;;;15.63;10.40;;;-6.80;99.90;;;;;;5016321;28;20245;-78
2024/01/10 04:37:02;;;;;;;17.35;10.07;;;-6.80;99.90;;;;;;5010280;28;20269;-78
2024/01/10 04:39:29;;;;;;;12.63;5.40;;;-6.80;99.90;;;;;;5002875;28;20229;-76
2024/01/10 04:41:56;;;;;;;11.23;9.63;;;-6.80;99.90;;;;;;5008021;28;20296;-77
2024/01/10 04:44:25;;;;;;;18.30;9.30;;;-6.80;99.90;;;;;;5002875;28;20204;-76
2024/01/10 04:46:52;;;;;;;20.45;12.48;;;-6.90;99.90;;;;;;5014948;28;20203;-76
2024/01/10 04:49:19;;;;;;;35.40;13.80;;;-6.90;99.90;;;;;;4996275;28;20206;-79
2024/01/10 04:51:46;;;;;;;21.00;10.60;;;-6.90;99.90;;;;;;5002328;28;20255;-79
2024/01/10 04:54:13;;;;;;;16.10;9.80;;;-6.90;99.90;;;;;;5010435;28;20203;-76
2024/01/10 04:56:40;;;;;;;28.50;16.35;;;-6.90;99.90;;;;;;5003690;28;20234;-76
2024/01/10 04:59:07;;;;;;;21.60;11.55;;;-6.90;99.90;;;;;;5003334;28;20315;-79
2024/01/10 05:01:36;;;;;;;14.02;10.18;;;-7.00;99.90;;;;;;5007234;28;20307;-77
2024/01/10 05:04:04;;;;;;;19.85;13.57;;;-7.00;99.90;;;;;;5013681;28;20200;-77
2024/01/10 05:06:30;;;;;;;24.70;11.65;;;-7.00;99.90;;;;;;4998209;28;20256;-77
2024/01/10 05:08:58;;;;;;;29.23;13.50;;;-7.00;99.90;;;;;;4999337;28;20302;-77
2024/01/10 05:11:26;;;;;;;20.23;11.13;;;-6.90;99.90;;;;;;5004802;28;20221;-76
2024/01/10 05:13:53;;;;;;;26.13;12.00;;;-7.00;99.90;;;;;;5013052;28;20293;-79
2024/01/10 05:16:21;;;;;;;12.32;8.63;;;-7.00;99.90;;;;;;5012607;28;20279;-76
2024/01/10 05:18:49;;;;;;;31.27;19.13;;;-7.00;99.90;;;;;;5014310;28;20230;-79
2024/01/10 05:21:16;;;;;;;23.23;14.43;;;-7.00;99.90;;;;;;5027620;28;20211;-79
2024/01/10 05:23:43;;;;;;;14.45;9.25;;;-7.00;99.90;;;;;;5003164;28;20352;-77
2024/01/10 05:26:10;;;;;;;29.58;20.50;;;-7.00;99.90;;;;;;5074763;28;20202;-76
2024/01/10 05:28:37;;;;;;;30.70;17.90;;;-7.10;99.90;;;;;;5033536;28;20580;-76
2024/01/10 05:31:04;;;;;;;26.95;15.80;;;-7.10;99.90;;;;;;5016430;28;20288;-79
2024/01/10 05:33:31;;;;;;;14.82;8.65;;;-7.10;99.90;;;;;;5012818;28;20273;-76
2024/01/10 05:36:00;;;;;;;27.90;17.20;;;-7.10;99.90;;;;;;5027859;28;20285;-79
2024/01/10 05:38:27;;;;;;;25.23;14.57;;;-7.20;99.90;;;;;;5050580;28;20227;-75
2024/01/10 05:40:54;;;;;;;22.45;12.20;;;-7.20;99.90;;;;;;5072227;28;20268;-76
2024/01/10 05:43:21;;;;;;;24.10;11.88;;;-7.10;99.90;;;;;;5003416;28;20286;-77
2024/01/10 05:45:48;;;;;;;25.80;13.25;;;-7.10;99.90;;;;;;5028980;28;20210;-77
2024/01/10 05:48:17;;;;;;;19.63;11.93;;;-7.20;99.90;;;;;;5042947;28;20215;-74
2024/01/10 05:50:44;;;;;;;22.35;11.43;;;-7.20;99.90;;;;;;5021400;28;20202;-76
2024/01/10 05:53:16;;;;;;;12.07;8.73;;;-7.20;99.90;;;;;;5051173;28;20273;-78
2024/01/10 05:55:43;;;;;;;21.70;12.90;;;-7.20;99.90;;;;;;5014300;28;20196;-77
2024/01/10 05:58:10;;;;;;;17.23;8.82;;;-7.20;99.90;;;;;;5015475;28;20262;-76
2024/01/10 06:00:37;;;;;;;20.77;11.25;;;-7.30;99.90;;;;;;5018441;28;20250;-77
2024/01/10 06:03:05;;;;;;;24.75;12.68;;;-7.30;99.90;;;;;;5002492;28;20211;-79
2024/01/10 06:05:32;;;;;;;22.17;14.40;;;-7.30;99.90;;;;;;5037988;28;20237;-75
2024/01/10 06:07:59;;;;;;;33.00;13.23;;;-7.20;99.90;;;;;;5035004;28;20260;-78
2024/01/10 06:10:28;;;;;;;20.02;14.02;;;-7.30;99.90;;;;;;5045651;28;20421;-75
2024/01/10 06:12:56;;;;;;;16.15;11.15;;;-7.20;99.90;;;;;;5040096;28;20208;-76
2024/01/10 06:15:23;;;;;;;19.25;9.05;;;-7.30;99.90;;;;;;5068533;28;20238;-77
2024/01/10 06:17:50;;;;;;;16.20;10.05;;;-7.20;99.90;;;;;;5037349;28;20288;-76
2024/01/10 06:20:18;;;;;;;14.07;10.18;;;-7.30;99.90;;;;;;5019134;28;20234;-76
2024/01/10 06:22:46;;;;;;;24.08;12.20;;;-7.20;99.90;;;;;;5022848;28;20225;-76
2024/01/10 06:25:13;;;;;;;19.40;10.65;;;-7.20;99.90;;;;;;5012342;28;20228;-79
2024/01/10 06:27:41;;;;;;;36.95;13.90;;;-7.20;99.90;;;;;;5068795;28;20203;-76
2024/01/10 06:30:09;;;;;;;24.30;13.75;;;-7.20;99.90;;;;;;5024875;28;20625;-78
2024/01/10 06:32:36;;;;;;;24.65;13.65;;;-7.20;99.90;;;;;;5014283;28;20207;-76
2024/01/10 06:35:04;;;;;;;19.95;12.70;;;-7.30;99.90;;;;;;5004192;28;20207;-76
2024/01/10 06:37:31;;;;;;;24.30;14.10;;;-7.20;99.90;;;;;;5011252;28;20679;-76
2024/01/10 06:39:58;;;;;;;24.05;11.68;;;-7.30;99.90;;;;;;5017170;28;20311;-77
2024/01/10 06:42:26;;;;;;;27.77;12.80;;;-7.30;99.90;;;;;;5012261;28;20207;-77
2024/01/10 06:44:54;;;;;;;21.85;14.63;;;-7.20;99.90;;;;;;5015193;28;20207;-78
2024/01/10 06:47:22;;;;;;;22.40;14.50;;;-7.20;99.90;;;;;;5008176;28;20202;-78
2024/01/10 06:49:49;;;;;;;17.48;11.40;;;-7.20;99.90;;;;;;5001654;28;20294;-76
2024/01/10 06:52:16;;;;;;;27.50;15.23;;;-7.20;99.90;;;;;;5025450;28;20270;-76
2024/01/10 06:54:43;;;;;;;21.15;11.88;;;-7.30;99.90;;;;;;5023649;28;20693;-76
2024/01/10 06:57:10;;;;;;;19.45;12.27;;;-7.30;99.90;;;;;;5028221;28;20199;-78
2024/01/10 06:59:37;;;;;;;26.15;14.10;;;-7.30;99.90;;;;;;5011805;28;20692;-76
2024/01/10 07:02:07;;;;;;;24.90;12.70;;;-7.30;99.90;;;;;;5022209;28;20206;-77
2024/01/10 07:04:33;;;;;;;30.02;18.83;;;-7.30;99.90;;;;;;5034878;28;20210;-75
2024/01/10 07:07:02;;;;;;;37.10;21.67;;;-7.30;99.90;;;;;;5007915;28;20680;-77
2024/01/10 07:09:29;;;;;;;31.73;21.48;;;-7.30;99.90;;;;;;5011694;28;20212;-79
2024/01/10 07:11:56;;;;;;;57.08;30.73;;;-7.20;99.90;;;;;;5025908;28;20490;-76
2024/01/10 07:14:23;;;;;;;47.20;28.88;;;-7.20;99.90;;;;;;5017585;28;20306;-79
2024/01/10 07:16:49;;;;;;;59.50;28.27;;;-7.20;99.90;;;;;;5028013;28;20734;-77
2024/01/10 07:19:18;;;;;;;28.48;18.30;;;-7.20;99.90;;;;;;5033368;28;20234;-78
2024/01/10 07:21:45;;;;;;;32.53;19.77;;;-7.20;99.90;;;;;;5001804;28;20204;-79
2024/01/10 07:24:12;;;;;;;28.83;15.88;;;-7.20;99.90;;;;;;5024278;28;20257;-77
2024/01/10 07:26:41;;;;;;;38.70;22.77;;;-7.20;99.90;;;;;;5008626;28;20211;-77
2024/01/10 07:29:08;;;;;;;31.40;17.73;;;-7.10;99.90;;;;;;5011621;28;20208;-77
2024/01/10 07:31:35;;;;;;;26.27;15.68;;;-7.10;99.90;;;;;;5007700;28;20222;-78
2024/01/10 07:34:04;;;;;;;28.98;16.77;;;-7.00;99.90;;;;;;5023255;28;20258;-81
2024/01/10 07:36:33;;;;;;;28.65;16.40;;;-7.00;99.90;;;;;;5004169;28;20210;-79
2024/01/10 07:39:00;;;;;;;35.20;15.07;;;-6.90;99.90;;;;;;5039302;28;20234;-78
2024/01/10 07:41:27;;;;;;;35.45;20.55;;;-6.90;99.90;;;;;;5021616;28;20203;-80
2024/01/10 07:43:54;;;;;;;23.92;15.35;;;-6.90;99.90;;;;;;5013485;28;20293;-78
2024/01/10 07:46:22;;;;;;;26.98;16.25;;;-6.80;99.90;;;;;;5025678;28;20272;-81
2024/01/10 07:48:49;;;;;;;38.65;18.25;;;-6.70;99.90;;;;;;5000612;28;20852;-76
2024/01/10 07:51:16;;;;;;;27.63;13.70;;;-6.60;99.90;;;;;;5012528;28;20224;-78
2024/01/10 07:53:44;;;;;;;38.95;17.92;;;-6.60;99.90;;;;;;5022560;28;20260;-78
2024/01/10 07:56:12;;;;;;;30.08;18.35;;;-6.60;99.90;;;;;;5031240;28;20284;-78
2024/01/10 07:58:39;;;;;;;21.83;12.15;;;-6.60;99.90;;;;;;5010601;28;20223;-80
2024/01/10 08:01:06;;;;;;;30.40;19.13;;;-6.50;99.90;;;;;;5017648;28;20299;-76
2024/01/10 08:03:34;;;;;;;25.08;14.00;;;-6.50;99.90;;;;;;5053967;28;20223;-83
2024/01/10 08:06:01;;;;;;;29.20;16.63;;;-6.40;99.90;;;;;;5030820;28;20299;-79
2024/01/10 08:08:28;;;;;;;32.65;17.95;;;-6.40;99.90;;;;;;5045480;28;20713;-82
2024/01/10 08:10:57;;;;;;;27.85;15.10;;;-6.40;99.90;;;;;;5045711;27;20200;-78
2024/01/10 08:13:25;;;;;;;25.15;15.52;;;-6.30;99.90;;;;;;5033541;28;20219;-78
2024/01/10 08:15:52;;;;;;;29.70;16.95;;;-6.30;99.90;;;;;;5060333;28;20686;-79
2024/01/10 08:18:19;;;;;;;23.42;13.63;;;-6.20;99.90;;;;;;5066008;28;20236;-78
2024/01/10 08:20:46;;;;;;;28.13;15.07;;;-6.20;99.90;;;;;;5040373;28;20291;-74
2024/01/10 08:23:13;;;;;;;25.45;13.95;;;-6.30;99.90;;;;;;5001686;28;20211;-77
2024/01/10 08:25:40;;;;;;;25.90;14.73;;;-6.20;99.90;;;;;;5018945;28;20203;-78
2024/01/10 08:28:10;;;;;;;26.38;13.27;;;-6.00;99.90;;;;;;5009100;28;20280;-78
2024/01/10 08:30:36;;;;;;;27.58;14.82;;;-6.00;99.90;;;;;;5003885;28;20835;-77
2024/01/10 08:33:05;;;;;;;27.95;15.77;;;-6.00;99.90;;;;;;5008713;28;20208;-78
2024/01/10 08:35:31;;;;;;;27.58;15.07;;;-5.90;99.90;;;;;;5002952;28;20577;-78
2024/01/10 08:37:58;;;;;;;31.35;14.57;;;-5.80;99.90;;;;;;5018680;28;20284;-77
2024/01/10 08:40:25;;;;;;;27.40;14.80;;;-5.80;99.90;;;;;;5035299;28;20231;-76
2024/01/10 08:42:52;;;;;;;28.65;16.23;;;-5.70;99.90;;;;;;5030018;28;20869;-78
2024/01/10 08:45:21;;;;;;;26.88;13.73;;;-5.70;99.90;;;;;;5008486;28;20232;-82
2024/01/10 08:47:48;;;;;;;19.55;12.20;;;-5.60;99.90;;;;;;5011229;28;20299;-78
2024/01/10 08:50:15;;;;;;;32.25;17.85;;;-5.50;99.90;;;;;;5001849;28;20239;-78
2024/01/10 08:52:42;;;;;;;27.98;16.60;;;-5.60;99.90;;;;;;5014444;28;20211;-78
2024/01/10 08:55:09;;;;;;;24.13;14.48;;;-5.50;99.90;;;;;;5017443;28;20228;-78
2024/01/10 08:57:36;;;;;;;23.33;15.10;;;-5.40;99.90;;;;;;5002281;28;20237;-80
2024/01/10 09:00:06;;;;;;;23.40;12.70;;;-5.40;99.90;;;;;;4998037;28;20704;-79
2024/01/10 09:02:36;;;;;;;18.80;12.68;;;-5.20;99.90;;;;;;5000974;28;20264;-78
2024/01/10 09:05:04;;;;;;;35.55;17.63;;;-5.20;99.90;;;;;;5030110;28;20219;-78
2024/01/10 09:07:31;;;;;;;23.67;13.55;;;-5.20;99.90;;;;;;5013063;28;20306;-77
2024/01/10 09:09:58;;;;;;;22.25;15.68;;;-5.10;99.90;;;;;;5026691;28;20222;-77
2024/01/10 09:12:25;;;;;;;23.88;14.95;;;-4.90;99.90;;;;;;5025405;28;20236;-77
2024/01/10 09:14:51;;;;;;;26.05;13.95;;;-4.90;99.90;;;;;;5016819;28;20662;-77
2024/01/10 09:17:18;;;;;;;34.83;17.20;;;-4.90;99.90;;;;;;5029098;28;20242;-80
2024/01/10 09:19:46;;;;;;;21.98;14.70;;;-4.80;99.90;;;;;;5016015;28;20513;-77
2024/01/10 09:22:14;;;;;;;22.38;16.83;;;-4.80;99.90;;;;;;5000242;28;20292;-78
2024/01/10 09:24:55;;;;;;;20.08;14.00;;;-4.70;99.90;;;;;;5022531;28;20306;-81
2024/01/10 09:27:27;;;;;;;22.98;13.70;;;-4.60;99.90;;;;;;5033014;28;20862;-81
2024/01/10 09:29:54;;;;;;;24.75;13.93;;;-4.70;99.90;;;;;;5025126;28;20265;-83
2024/01/10 09:32:22;;;;;;;39.13;17.40;;;-4.60;99.90;;;;;;4999382;28;20208;-79
2024/01/10 09:34:51;;;;;;;33.70;18.58;;;-4.60;99.90;;;;;;5054174;28;20239;-80
2024/01/10 09:37:21;;;;;;;27.58;15.00;;;-4.50;99.90;;;;;;5029374;28;20199;-83
2024/01/10 09:39:50;;;;;;;23.23;15.73;;;-4.40;99.90;;;;;;5070232;28;20240;-81
2024/01/10 09:42:17;;;;;;;26.80;15.20;;;-4.40;99.90;;;;;;5029255;28;20215;-78
2024/01/10 09:44:46;;;;;;;29.08;19.10;;;-4.30;99.90;;;;;;5034265;28;20282;-80
2024/01/10 09:47:16;;;;;;;21.85;13.55;;;-4.30;99.90;;;;;;5010090;28;20236;-77
2024/01/10 09:49:44;;;;;;;24.83;14.40;;;-4.20;99.90;;;;;;5010645;28;20236;-78
2024/01/10 09:52:17;;;;;;;22.48;14.52;;;-4.30;99.90;;;;;;5006455;28;20207;-78
2024/01/10 09:54:46;;;;;;;23.45;14.90;;;-4.20;99.90;;;;;;5005044;28;20205;-78
2024/01/10 09:57:14;;;;;;;37.75;19.77;;;-4.10;99.90;;;;;;5005182;28;20588;-78
2024/01/10 09:59:46;;;;;;;28.45;13.25;;;-4.00;99.90;;;;;;5011789;28;20300;-78
2024/01/10 10:02:16;;;;;;;26.83;17.05;;;-4.00;99.90;;;;;;5012622;28;20277;-79
2024/01/10 10:04:47;;;;;;;25.35;14.63;;;-4.10;99.90;;;;;;5037085;28;20196;-78
2024/01/10 10:07:15;;;;;;;28.92;14.95;;;-4.00;99.90;;;;;;5004972;28;20678;-81
2024/01/10 10:09:43;;;;;;;28.95;17.88;;;-3.80;99.90;;;;;;5012912;28;20761;-78
2024/01/10 10:12:10;;;;;;;33.60;14.88;;;-3.70;99.90;;;;;;5019131;28;20296;-79
2024/01/10 10:14:37;;;;;;;30.95;17.13;;;-3.70;99.90;;;;;;5027134;28;20264;-77
2024/01/10 10:17:17;;;;;;;24.70;17.00;;;-3.60;99.90;;;;;;5013723;28;20249;-78
2024/01/10 10:19:45;;;;;;;27.48;13.75;;;-3.60;99.90;;;;;;5012251;28;20319;-80
2024/01/10 10:22:12;;;;;;;23.17;15.20;;;-3.70;99.90;;;;;;5015251;28;20227;-78
2024/01/10 10:24:44;;;;;;;28.40;17.63;;;-3.60;99.90;;;;;;5007648;28;20353;-76
2024/01/10 10:27:12;;;;;;;32.00;14.85;;;-3.40;99.90;;;;;;5009233;28;20258;-77
2024/01/10 10:29:40;;;;;;;28.35;16.83;;;-3.30;99.90;;;;;;5008969;28;20256;-77
2024/01/10 10:32:08;;;;;;;31.75;17.70;;;-3.30;99.80;;;;;;5010955;28;20206;-79
2024/01/10 10:34:35;;;;;;;25.15;14.45;;;-3.30;99.80;;;;;;5003512;28;20218;-76
2024/01/10 10:37:02;;;;;;;26.75;16.35;;;-3.20;99.80;;;;;;5007305;28;20263;-77
2024/01/10 10:39:29;;;;;;;24.88;16.45;;;-3.10;99.70;;;;;;5009670;28;20310;-77
2024/01/10 10:41:59;;;;;;;29.83;18.38;;;-3.00;99.60;;;;;;5013519;28;20779;-76
2024/01/10 10:44:26;;;;;;;21.98;15.27;;;-2.90;99.60;;;;;;5045811;28;20216;-77
2024/01/10 10:46:55;;;;;;;25.65;15.10;;;-2.90;99.60;;;;;;5002513;28;20749;-77
2024/01/10 10:49:30;;;;;;;26.95;16.23;;;-2.80;99.60;;;;;;5004131;28;20217;-77
2024/01/10 10:51:58;;;;;;;26.67;16.15;;;-2.70;99.30;;;;;;5003251;28;20210;-77
2024/01/10 10:54:29;;;;;;;27.25;15.15;;;-2.70;98.40;;;;;;5003430;28;20228;-78
2024/01/10 10:57:00;;;;;;;22.92;14.18;;;-2.80;98.70;;;;;;5002093;28;20317;-77
2024/01/10 10:59:28;;;;;;;36.00;16.70;;;-2.70;99.00;;;;;;5003374;28;20202;-77
2024/01/10 11:01:56;;;;;;;26.13;16.58;;;-2.80;99.30;;;;;;5003590;28;20380;-79
2024/01/10 11:04:24;;;;;;;28.10;17.60;;;-2.80;99.40;;;;;;5003999;28;20789;-78
2024/01/10 11:06:51;;;;;;;30.65;16.55;;;-2.70;98.80;;;;;;5001430;28;20648;-79
2024/01/10 11:09:22;;;;;;;28.00;13.85;;;-2.70;99.20;;;;;;5003601;28;20279;-78
2024/01/10 11:12:12;;;;;;;24.45;15.13;;;-2.80;99.10;;;;;;5003658;28;20209;-77
2024/01/10 11:14:55;;;;;;;31.08;17.40;;;-2.70;99.50;;;;;;5005771;28;20280;-79
2024/01/10 11:17:41;;;;;;;21.05;13.50;;;-2.40;99.10;;;;;;5003735;28;20274;-77
2024/01/10 11:20:40;;;;;;;25.40;15.38;;;-2.50;98.20;;;;;;5008715;28;20272;-79
2024/01/10 11:23:29;;;;;;;22.20;15.32;;;-2.50;99.60;;;;;;5003211;28;20286;-78
2024/01/10 11:25:57;;;;;;;31.52;15.07;;;-2.50;99.50;;;;;;5040868;28;20206;-77
2024/01/10 11:28:28;;;;;;;29.35;14.77;;;-2.40;99.30;;;;;;5014555;28;20242;-76
2024/01/10 11:30:56;;;;;;;22.73;14.10;;;-2.20;99.10;;;;;;5004250;28;20301;-75
2024/01/10 11:33:25;;;;;;;21.23;15.38;;;-2.20;98.80;;;;;;4997837;28;20593;-74
2024/01/10 11:36:09;;;;;;;29.92;16.13;;;-2.30;98.90;;;;;;5034385;28;20210;-74
2024/01/10 11:38:40;;;;;;;29.40;16.50;;;-2.20;98.80;;;;;;4993563;28;20201;-76
2024/01/10 11:41:08;;;;;;;22.08;15.63;;;-2.20;99.30;;;;;;5015017;28;20254;-76
2024/01/10 11:43:37;;;;;;;26.25;15.00;;;-2.00;99.10;;;;;;5000606;28;20830;-75
2024/01/10 11:46:05;;;;;;;27.77;17.20;;;-2.00;98.80;;;;;;5012790;28;20369;-76
2024/01/10 11:48:33;;;;;;;24.58;14.55;;;-1.90;98.80;;;;;;4992984;28;20203;-75
2024/01/10 11:51:01;;;;;;;26.80;18.45;;;-1.90;98.80;;;;;;5012885;28;20329;-76
2024/01/10 11:53:46;;;;;;;22.75;17.02;;;-1.90;99.00;;;;;;5015610;28;20285;-75
2024/01/10 11:56:17;;;;;;;24.17;14.90;;;-1.80;98.90;;;;;;5002104;28;20207;-74
2024/01/10 11:59:03;;;;;;;26.13;15.25;;;-1.80;98.60;;;;;;5003374;28;20207;-75
2024/01/10 12:01:31;;;;;;;27.73;17.75;;;-1.70;99.10;;;;;;4998004;28;20673;-77
2024/01/10 12:03:59;;;;;;;24.35;15.32;;;-1.60;99.00;;;;;;5023329;28;20732;-75
2024/01/10 12:06:27;;;;;;;26.17;17.17;;;-1.60;98.50;;;;;;4999453;28;20200;-75
2024/01/10 12:08:54;;;;;;;27.65;16.50;;;-1.60;98.40;;;;;;5050076;28;20806;-75
2024/01/10 12:11:21;;;;;;;27.95;16.20;;;-1.60;98.90;;;;;;5002308;28;20266;-75
2024/01/10 12:13:48;;;;;;;24.20;16.60;;;-1.40;98.70;;;;;;5009142;28;20865;-76
2024/01/10 12:16:17;;;;;;;31.42;16.77;;;-1.40;98.60;;;;;;5044832;28;20285;-75
2024/01/10 12:18:44;;;;;;;22.10;14.25;;;-1.30;98.60;;;;;;5041040;28;20252;-75
2024/01/10 12:21:12;;;;;;;28.25;15.32;;;-1.30;97.50;;;;;;5005982;28;20225;-76
2024/01/10 12:23:40;;;;;;;19.33;14.93;;;-1.40;98.10;;;;;;5028273;28;21068;-76
2024/01/10 12:26:09;;;;;;;28.17;18.10;;;-1.50;97.90;;;;;;5030125;28;20245;-76
2024/01/10 12:28:36;;;;;;;19.95;14.77;;;-1.50;98.30;;;;;;5022473;28;20226;-77
2024/01/10 12:31:04;;;;;;;31.63;16.08;;;-1.60;98.50;;;;;;5021131;28;20520;-76
2024/01/10 12:33:33;;;;;;;23.90;14.45;;;-1.70;98.70;;;;;;5009158;28;20692;-76
2024/01/10 12:36:07;;;;;;;20.48;14.52;;;-1.70;99.00;;;;;;5048684;28;20296;-76